sensor_id;sensor_type;location;lat;lon;timestamp;P1;durP1;ratioP1;P2;durP2;ratioP2
17449;SDS011;8842;51.244;7.102;2022-08-05T00:03:25;9.60;;;9.00;;
17449;SDS011;8842;51.244;7.102;2022-08-05T00:08:29;9.20;;;8.70;;
17449;SDS011;8842;51.244;7.102;2022-08-05T00:13:42;9.43;;;8.93;;
17449;SDS011;8842;51.244;7.102;2022-08-05T00:18:47;9.50;;;9.00;;
17449;SDS011;8842;51.244;7.102;2022-08-05T00:23:59;9.77;;;9.20;;
17449;SDS011;8842;51.244;7.102;2022-08-05T00:29:03;9.77;;;9.27;;
17449;SDS011;8842;51.244;7.102;2022-08-05T00:34:15;9.40;;;8.90;;
17449;SDS011;8842;51.244;7.102;2022-08-05T00:44:30;9.70;;;9.20;;
17449;SDS011;8842;51.244;7.102;2022-08-05T00:49:35;9.77;;;9.27;;
17449;SDS011;8842;51.244;7.102;2022-08-05T00:54:46;10.23;;;9.63;;
17449;SDS011;8842;51.244;7.102;2022-08-05T00:59:51;9.73;;;9.23;;
17449;SDS011;8842;51.244;7.102;2022-08-05T01:05:03;9.80;;;9.20;;
17449;SDS011;8842;51.244;7.102;2022-08-05T01:10:15;9.60;;;9.10;;
17449;SDS011;8842;51.244;7.102;2022-08-05T01:15:24;9.47;;;8.97;;
17449;SDS011;8842;51.244;7.102;2022-08-05T01:20:39;9.53;;;9.03;;
17449;SDS011;8842;51.244;7.102;2022-08-05T01:25:57;9.53;;;9.03;;
17449;SDS011;8842;51.244;7.102;2022-08-05T01:36:43;9.65;;;9.15;;
17449;SDS011;8842;51.244;7.102;2022-08-05T01:41:50;9.60;;;9.10;;
17449;SDS011;8842;51.244;7.102;2022-08-05T01:47:04;9.50;;;9.00;;
17449;SDS011;8842;51.244;7.102;2022-08-05T01:52:09;9.63;;;8.93;;
17449;SDS011;8842;51.244;7.102;2022-08-05T01:57:23;9.37;;;8.87;;
17449;SDS011;8842;51.244;7.102;2022-08-05T02:02:30;9.37;;;8.87;;
17449;SDS011;8842;51.244;7.102;2022-08-05T02:07:42;9.40;;;8.90;;
17449;SDS011;8842;51.244;7.102;2022-08-05T02:12:48;9.10;;;8.60;;
17449;SDS011;8842;51.244;7.102;2022-08-05T02:18:01;9.50;;;9.00;;
17449;SDS011;8842;51.244;7.102;2022-08-05T02:28:20;9.60;;;9.10;;
17449;SDS011;8842;51.244;7.102;2022-08-05T02:33:27;9.70;;;9.20;;
17449;SDS011;8842;51.244;7.102;2022-08-05T02:38:40;9.70;;;9.20;;
17449;SDS011;8842;51.244;7.102;2022-08-05T02:43:47;10.00;;;9.50;;
17449;SDS011;8842;51.244;7.102;2022-08-05T02:49:00;9.53;;;9.03;;
17449;SDS011;8842;51.244;7.102;2022-08-05T02:59:17;9.60;;;9.10;;
17449;SDS011;8842;51.244;7.102;2022-08-05T03:04:22;9.20;;;8.70;;
17449;SDS011;8842;51.244;7.102;2022-08-05T03:09:34;9.80;;;9.27;;
17449;SDS011;8842;51.244;7.102;2022-08-05T03:14:39;11.50;;;10.90;;
17449;SDS011;8842;51.244;7.102;2022-08-05T03:24:57;15.70;;;14.80;;
17449;SDS011;8842;51.244;7.102;2022-08-05T03:30:04;16.30;;;15.40;;
17449;SDS011;8842;51.244;7.102;2022-08-05T03:35:16;16.50;;;15.60;;
17449;SDS011;8842;51.244;7.102;2022-08-05T03:40:22;15.60;;;14.70;;
17449;SDS011;8842;51.244;7.102;2022-08-05T03:45:34;15.40;;;14.50;;
17449;SDS011;8842;51.244;7.102;2022-08-05T03:50:41;15.50;;;14.60;;
17449;SDS011;8842;51.244;7.102;2022-08-05T03:55:56;15.50;;;14.60;;
17449;SDS011;8842;51.244;7.102;2022-08-05T04:06:14;15.40;;;14.60;;
17449;SDS011;8842;51.244;7.102;2022-08-05T04:11:20;15.80;;;14.90;;
17449;SDS011;8842;51.244;7.102;2022-08-05T04:16:32;15.00;;;14.20;;
17449;SDS011;8842;51.244;7.102;2022-08-05T04:21:37;14.07;;;13.27;;
17449;SDS011;8842;51.244;7.102;2022-08-05T04:26:49;14.87;;;14.07;;
17449;SDS011;8842;51.244;7.102;2022-08-05T04:32:01;14.93;;;14.13;;
17449;SDS011;8842;51.244;7.102;2022-08-05T04:42:16;15.67;;;14.77;;
17449;SDS011;8842;51.244;7.102;2022-08-05T04:47:20;15.73;;;14.83;;
17449;SDS011;8842;51.244;7.102;2022-08-05T04:52:32;15.80;;;14.90;;
17449;SDS011;8842;51.244;7.102;2022-08-05T04:57:36;16.00;;;15.10;;
17449;SDS011;8842;51.244;7.102;2022-08-05T05:02:51;16.07;;;15.17;;
17449;SDS011;8842;51.244;7.102;2022-08-05T05:13:06;16.10;;;15.20;;
17449;SDS011;8842;51.244;7.102;2022-08-05T05:18:18;15.47;;;14.67;;
17449;SDS011;8842;51.244;7.102;2022-08-05T05:23:30;15.67;;;14.83;;
17449;SDS011;8842;51.244;7.102;2022-08-05T05:28:34;15.63;;;14.73;;
17449;SDS011;8842;51.244;7.102;2022-08-05T05:33:38;15.10;;;14.30;;
17449;SDS011;8842;51.244;7.102;2022-08-05T05:38:43;15.53;;;14.63;;
17449;SDS011;8842;51.244;7.102;2022-08-05T05:48:58;15.40;;;14.50;;
17449;SDS011;8842;51.244;7.102;2022-08-05T05:59:13;14.80;;;13.90;;
17449;SDS011;8842;51.244;7.102;2022-08-05T06:09:29;15.10;;;14.20;;
17449;SDS011;8842;51.244;7.102;2022-08-05T06:14:33;14.30;;;13.47;;
17449;SDS011;8842;51.244;7.102;2022-08-05T06:19:51;14.70;;;13.83;;
17449;SDS011;8842;51.244;7.102;2022-08-05T06:30:07;15.43;;;14.43;;
17449;SDS011;8842;51.244;7.102;2022-08-05T06:40:26;14.80;;;13.90;;
17449;SDS011;8842;51.244;7.102;2022-08-05T06:50:42;15.70;;;14.70;;
17449;SDS011;8842;51.244;7.102;2022-08-05T06:55:46;14.97;;;14.07;;
17449;SDS011;8842;51.244;7.102;2022-08-05T07:00:50;14.43;;;13.63;;
17449;SDS011;8842;51.244;7.102;2022-08-05T07:11:08;13.60;;;12.90;;
17449;SDS011;8842;51.244;7.102;2022-08-05T07:16:13;14.93;;;13.97;;
17449;SDS011;8842;51.244;7.102;2022-08-05T07:21:25;13.60;;;12.90;;
17449;SDS011;8842;51.244;7.102;2022-08-05T07:31:40;13.97;;;13.17;;
17449;SDS011;8842;51.244;7.102;2022-08-05T07:41:58;14.77;;;13.90;;
17449;SDS011;8842;51.244;7.102;2022-08-05T07:52:13;14.23;;;13.23;;
17449;SDS011;8842;51.244;7.102;2022-08-05T07:57:17;14.60;;;13.70;;
17449;SDS011;8842;51.244;7.102;2022-08-05T08:02:29;14.03;;;13.23;;
17449;SDS011;8842;51.244;7.102;2022-08-05T08:07:34;14.50;;;13.70;;
17449;SDS011;8842;51.244;7.102;2022-08-05T08:12:45;14.40;;;13.50;;
17449;SDS011;8842;51.244;7.102;2022-08-05T08:17:50;14.10;;;13.27;;
17449;SDS011;8842;51.244;7.102;2022-08-05T08:22:54;14.00;;;13.20;;
17449;SDS011;8842;51.244;7.102;2022-08-05T08:28:01;14.70;;;13.90;;
17449;SDS011;8842;51.244;7.102;2022-08-05T08:33:12;14.60;;;13.80;;
17449;SDS011;8842;51.244;7.102;2022-08-05T08:43:31;14.47;;;13.50;;
17449;SDS011;8842;51.244;7.102;2022-08-05T08:48:36;13.70;;;13.00;;
17449;SDS011;8842;51.244;7.102;2022-08-05T08:53:52;13.20;;;12.50;;
17449;SDS011;8842;51.244;7.102;2022-08-05T08:58:56;13.53;;;12.63;;
17449;SDS011;8842;51.244;7.102;2022-08-05T09:09:13;14.20;;;13.20;;
17449;SDS011;8842;51.244;7.102;2022-08-05T09:19:29;12.80;;;12.10;;
17449;SDS011;8842;51.244;7.102;2022-08-05T09:29:45;12.70;;;11.90;;
17449;SDS011;8842;51.244;7.102;2022-08-05T09:34:57;12.20;;;11.23;;
17449;SDS011;8842;51.244;7.102;2022-08-05T09:45:14;13.20;;;12.50;;
17449;SDS011;8842;51.244;7.102;2022-08-05T09:50:19;13.30;;;12.60;;
17449;SDS011;8842;51.244;7.102;2022-08-05T09:55:34;13.57;;;12.87;;
17449;SDS011;8842;51.244;7.102;2022-08-05T10:00:39;13.70;;;12.90;;
17449;SDS011;8842;51.244;7.102;2022-08-05T10:06:01;13.33;;;12.63;;
17449;SDS011;8842;51.244;7.102;2022-08-05T10:11:14;12.80;;;12.10;;
17449;SDS011;8842;51.244;7.102;2022-08-05T10:16:29;12.30;;;11.60;;
17449;SDS011;8842;51.244;7.102;2022-08-05T10:21:44;11.77;;;11.07;;
17449;SDS011;8842;51.244;7.102;2022-08-05T10:32:01;14.37;;;12.90;;
17449;SDS011;8842;51.244;7.102;2022-08-05T10:42:21;9.77;;;9.27;;
17449;SDS011;8842;51.244;7.102;2022-08-05T10:47:29;11.00;;;10.40;;
17449;SDS011;8842;51.244;7.102;2022-08-05T10:52:44;11.10;;;10.50;;
17449;SDS011;8842;51.244;7.102;2022-08-05T11:03:29;10.50;;;9.90;;
17449;SDS011;8842;51.244;7.102;2022-08-05T11:13:45;11.37;;;10.30;;
17449;SDS011;8842;51.244;7.102;2022-08-05T11:29:42;10.32;;;9.83;;
17449;SDS011;8842;51.244;7.102;2022-08-05T11:34:46;10.30;;;9.75;;
17449;SDS011;8842;51.244;7.102;2022-08-05T11:39:58;10.72;;;10.13;;
17449;SDS011;8842;51.244;7.102;2022-08-05T11:50:13;10.30;;;9.75;;
17449;SDS011;8842;51.244;7.102;2022-08-05T11:55:18;10.75;;;10.15;;
17449;SDS011;8842;51.244;7.102;2022-08-05T12:05:36;10.25;;;9.75;;
17449;SDS011;8842;51.244;7.102;2022-08-05T12:15:51;10.65;;;10.05;;
17449;SDS011;8842;51.244;7.102;2022-08-05T12:20:56;9.95;;;9.45;;
17449;SDS011;8842;51.244;7.102;2022-08-05T12:26:19;10.60;;;10.00;;
17449;SDS011;8842;51.244;7.102;2022-08-05T12:31:31;9.80;;;9.30;;
17449;SDS011;8842;51.244;7.102;2022-08-05T12:36:36;9.33;;;8.83;;
17449;SDS011;8842;51.244;7.102;2022-08-05T12:41:48;8.50;;;8.10;;
17449;SDS011;8842;51.244;7.102;2022-08-05T12:46:53;8.23;;;7.72;;
17449;SDS011;8842;51.244;7.102;2022-08-05T12:52:10;10.00;;;9.50;;
17449;SDS011;8842;51.244;7.102;2022-08-05T12:57:22;9.53;;;9.03;;
17449;SDS011;8842;51.244;7.102;2022-08-05T13:02:26;9.93;;;9.35;;
17449;SDS011;8842;51.244;7.102;2022-08-05T13:07:39;9.63;;;9.13;;
17449;SDS011;8842;51.244;7.102;2022-08-05T13:13:01;9.40;;;8.90;;
17449;SDS011;8842;51.244;7.102;2022-08-05T13:18:08;9.85;;;8.90;;
17449;SDS011;8842;51.244;7.102;2022-08-05T13:23:20;9.10;;;8.60;;
17449;SDS011;8842;51.244;7.102;2022-08-05T13:28:31;9.38;;;8.88;;
17449;SDS011;8842;51.244;7.102;2022-08-05T13:33:36;9.03;;;8.53;;
17449;SDS011;8842;51.244;7.102;2022-08-05T13:38:47;8.80;;;8.40;;
17449;SDS011;8842;51.244;7.102;2022-08-05T13:43:59;9.25;;;8.75;;
17449;SDS011;8842;51.244;7.102;2022-08-05T13:49:04;9.20;;;8.70;;
17449;SDS011;8842;51.244;7.102;2022-08-05T13:59:20;9.30;;;8.70;;
17449;SDS011;8842;51.244;7.102;2022-08-05T14:04:25;9.40;;;8.90;;
17449;SDS011;8842;51.244;7.102;2022-08-05T14:09:49;8.88;;;8.38;;
17449;SDS011;8842;51.244;7.102;2022-08-05T14:20:05;9.80;;;9.23;;
17449;SDS011;8842;51.244;7.102;2022-08-05T14:25:10;9.75;;;9.25;;
17449;SDS011;8842;51.244;7.102;2022-08-05T14:30:16;9.13;;;8.63;;
17449;SDS011;8842;51.244;7.102;2022-08-05T14:35:21;9.20;;;8.70;;
17449;SDS011;8842;51.244;7.102;2022-08-05T14:40:25;9.90;;;9.40;;
17449;SDS011;8842;51.244;7.102;2022-08-05T14:50:40;9.00;;;8.50;;
17449;SDS011;8842;51.244;7.102;2022-08-05T14:55:45;8.70;;;8.30;;
17449;SDS011;8842;51.244;7.102;2022-08-05T15:06:00;8.78;;;8.38;;
17449;SDS011;8842;51.244;7.102;2022-08-05T15:16:16;8.83;;;8.43;;
17449;SDS011;8842;51.244;7.102;2022-08-05T15:21:20;8.80;;;8.40;;
17449;SDS011;8842;51.244;7.102;2022-08-05T15:26:32;9.85;;;9.35;;
17449;SDS011;8842;51.244;7.102;2022-08-05T15:31:44;9.30;;;8.80;;
17449;SDS011;8842;51.244;7.102;2022-08-05T15:36:49;9.18;;;8.68;;
17449;SDS011;8842;51.244;7.102;2022-08-05T15:47:04;9.08;;;8.50;;
17449;SDS011;8842;51.244;7.102;2022-08-05T15:52:09;9.30;;;8.80;;
17449;SDS011;8842;51.244;7.102;2022-08-05T15:57:20;8.80;;;8.40;;
17449;SDS011;8842;51.244;7.102;2022-08-05T16:02:32;9.13;;;8.63;;
17449;SDS011;8842;51.244;7.102;2022-08-05T16:12:48;9.20;;;8.70;;
17449;SDS011;8842;51.244;7.102;2022-08-05T16:18:00;10.00;;;9.50;;
17449;SDS011;8842;51.244;7.102;2022-08-05T16:23:11;9.48;;;8.98;;
17449;SDS011;8842;51.244;7.102;2022-08-05T16:28:16;9.40;;;8.90;;
17449;SDS011;8842;51.244;7.102;2022-08-05T16:33:22;8.65;;;8.25;;
17449;SDS011;8842;51.244;7.102;2022-08-05T16:38:34;9.38;;;8.88;;
17449;SDS011;8842;51.244;7.102;2022-08-05T16:43:38;9.50;;;9.00;;
17449;SDS011;8842;51.244;7.102;2022-08-05T16:48:43;9.18;;;8.68;;
17449;SDS011;8842;51.244;7.102;2022-08-05T16:53:47;9.63;;;9.13;;
17449;SDS011;8842;51.244;7.102;2022-08-05T17:04:03;9.65;;;9.15;;
17449;SDS011;8842;51.244;7.102;2022-08-05T17:09:08;9.23;;;8.73;;
17449;SDS011;8842;51.244;7.102;2022-08-05T17:14:20;9.50;;;9.00;;
17449;SDS011;8842;51.244;7.102;2022-08-05T17:19:24;9.90;;;9.40;;
17449;SDS011;8842;51.244;7.102;2022-08-05T17:24:36;9.30;;;8.80;;
17449;SDS011;8842;51.244;7.102;2022-08-05T17:29:40;10.20;;;9.70;;
17449;SDS011;8842;51.244;7.102;2022-08-05T17:39:56;9.60;;;9.10;;
17449;SDS011;8842;51.244;7.102;2022-08-05T17:45:01;9.25;;;8.75;;
17449;SDS011;8842;51.244;7.102;2022-08-05T17:50:13;9.45;;;8.95;;
17449;SDS011;8842;51.244;7.102;2022-08-05T17:55:19;8.93;;;8.48;;
17449;SDS011;8842;51.244;7.102;2022-08-05T18:00:23;8.90;;;8.45;;
17449;SDS011;8842;51.244;7.102;2022-08-05T18:05:28;9.40;;;8.90;;
17449;SDS011;8842;51.244;7.102;2022-08-05T18:10:40;8.80;;;8.40;;
17449;SDS011;8842;51.244;7.102;2022-08-05T18:20:55;9.53;;;8.93;;
17449;SDS011;8842;51.244;7.102;2022-08-05T18:25:59;9.35;;;8.85;;
17449;SDS011;8842;51.244;7.102;2022-08-05T18:31:11;9.60;;;9.10;;
17449;SDS011;8842;51.244;7.102;2022-08-05T18:36:16;9.40;;;8.90;;
17449;SDS011;8842;51.244;7.102;2022-08-05T18:41:20;9.27;;;8.77;;
17449;SDS011;8842;51.244;7.102;2022-08-05T18:46:32;9.40;;;8.90;;
17449;SDS011;8842;51.244;7.102;2022-08-05T18:51:36;9.50;;;9.00;;
17449;SDS011;8842;51.244;7.102;2022-08-05T18:57:12;9.30;;;8.80;;
17449;SDS011;8842;51.244;7.102;2022-08-05T19:02:19;9.80;;;9.30;;
17449;SDS011;8842;51.244;7.102;2022-08-05T19:07:24;10.10;;;9.60;;
17449;SDS011;8842;51.244;7.102;2022-08-05T19:12:28;10.10;;;9.60;;
17449;SDS011;8842;51.244;7.102;2022-08-05T19:17:34;10.40;;;9.50;;
17449;SDS011;8842;51.244;7.102;2022-08-05T19:22:40;9.90;;;9.40;;
17449;SDS011;8842;51.244;7.102;2022-08-05T19:27:52;10.00;;;9.50;;
17449;SDS011;8842;51.244;7.102;2022-08-05T19:38:07;9.90;;;9.40;;
17449;SDS011;8842;51.244;7.102;2022-08-05T19:48:22;9.80;;;9.30;;
17449;SDS011;8842;51.244;7.102;2022-08-05T19:53:27;10.10;;;9.60;;
17449;SDS011;8842;51.244;7.102;2022-08-05T19:58:40;10.10;;;9.60;;
17449;SDS011;8842;51.244;7.102;2022-08-05T20:03:44;10.33;;;9.80;;
17449;SDS011;8842;51.244;7.102;2022-08-05T20:08:56;9.87;;;9.37;;
17449;SDS011;8842;51.244;7.102;2022-08-05T20:14:01;10.00;;;9.50;;
17449;SDS011;8842;51.244;7.102;2022-08-05T20:19:12;10.17;;;9.67;;
17449;SDS011;8842;51.244;7.102;2022-08-05T20:24:17;10.60;;;10.00;;
17449;SDS011;8842;51.244;7.102;2022-08-05T20:29:29;10.10;;;9.60;;
17449;SDS011;8842;51.244;7.102;2022-08-05T20:34:33;9.40;;;8.90;;
17449;SDS011;8842;51.244;7.102;2022-08-05T20:39:45;9.90;;;9.40;;
17449;SDS011;8842;51.244;7.102;2022-08-05T20:44:49;9.63;;;9.13;;
17449;SDS011;8842;51.244;7.102;2022-08-05T20:49:54;9.60;;;9.10;;
17449;SDS011;8842;51.244;7.102;2022-08-05T20:55:07;10.00;;;9.50;;
17449;SDS011;8842;51.244;7.102;2022-08-05T21:05:23;9.60;;;9.10;;
17449;SDS011;8842;51.244;7.102;2022-08-05T21:15:38;9.60;;;9.10;;
17449;SDS011;8842;51.244;7.102;2022-08-05T21:20:43;9.73;;;9.23;;
17449;SDS011;8842;51.244;7.102;2022-08-05T21:25:47;9.70;;;9.20;;
17449;SDS011;8842;51.244;7.102;2022-08-05T21:36:06;9.97;;;9.47;;
17449;SDS011;8842;51.244;7.102;2022-08-05T21:41:10;10.10;;;9.60;;
17449;SDS011;8842;51.244;7.102;2022-08-05T21:46:22;9.83;;;9.33;;
17449;SDS011;8842;51.244;7.102;2022-08-05T21:51:26;10.00;;;9.50;;
17449;SDS011;8842;51.244;7.102;2022-08-05T21:56:38;10.00;;;9.50;;
17449;SDS011;8842;51.244;7.102;2022-08-05T22:01:42;9.90;;;9.30;;
17449;SDS011;8842;51.244;7.102;2022-08-05T22:06:54;9.70;;;9.20;;
17449;SDS011;8842;51.244;7.102;2022-08-05T22:17:10;9.70;;;9.20;;
17449;SDS011;8842;51.244;7.102;2022-08-05T22:22:15;9.60;;;9.10;;
17449;SDS011;8842;51.244;7.102;2022-08-05T22:27:19;9.90;;;9.40;;
17449;SDS011;8842;51.244;7.102;2022-08-05T22:32:55;9.70;;;9.20;;
17449;SDS011;8842;51.244;7.102;2022-08-05T22:38:12;9.90;;;9.40;;
17449;SDS011;8842;51.244;7.102;2022-08-05T22:43:17;9.80;;;9.30;;
17449;SDS011;8842;51.244;7.102;2022-08-05T22:48:29;10.10;;;9.60;;
17449;SDS011;8842;51.244;7.102;2022-08-05T22:53:33;10.33;;;9.50;;
17449;SDS011;8842;51.244;7.102;2022-08-05T22:58:45;9.60;;;9.10;;
17449;SDS011;8842;51.244;7.102;2022-08-05T23:03:49;9.37;;;8.87;;
17449;SDS011;8842;51.244;7.102;2022-08-05T23:14:12;9.40;;;8.90;;
17449;SDS011;8842;51.244;7.102;2022-08-05T23:19:16;9.77;;;9.27;;
17449;SDS011;8842;51.244;7.102;2022-08-05T23:24:28;10.00;;;9.50;;
17449;SDS011;8842;51.244;7.102;2022-08-05T23:29:32;9.57;;;9.07;;
17449;SDS011;8842;51.244;7.102;2022-08-05T23:34:54;9.50;;;9.00;;
17449;SDS011;8842;51.244;7.102;2022-08-05T23:39:59;9.57;;;9.07;;
17449;SDS011;8842;51.244;7.102;2022-08-05T23:45:11;9.70;;;9.20;;
17449;SDS011;8842;51.244;7.102;2022-08-05T23:50:15;9.40;;;8.90;;
17449;SDS011;8842;51.244;7.102;2022-08-05T23:55:27;9.70;;;9.20;;
